CheckWX is a tool to help pilots better visualize weather data.  It is not intended as a substitute for an official pre-flight weather briefing.

14:34:26 UTC

KBLM METAR
Monmouth Executive Airport
Belmar/Farmingdale, New Jersey, USA
Current

38 mins ago

KBLM 261356Z AUTO 23006KT 10SM OVC090 02/02 A2986 RMK AO2 SLP114 T00220022 FZRANO
Observed
Jan-26 @ 13:56 UTC
Wind
  • 230° at 6 KTS
Visibility
10 SM
Flight Rules
VFR
Cloud Levels
  • Overcast at 9,000' AGL
Temperature
C / 36°F
Dewpoint
C / 36°F
Humidity
100%
Altimeter
29.86" Hg
Pressure
1011.22 hPa
Previous

2 hours ago

KBLM 261256Z AUTO 23004KT 9SM CLR 01/01 A2986 RMK AO2 SLP113 T00110011 FZRANO
Observed
Jan-26 @ 12:56 UTC
Wind
  • 230° at 4 KTS
Visibility
9 SM
Flight Rules
VFR
Cloud Levels
  • Clear skies
Temperature
C / 34°F
Dewpoint
C / 34°F
Humidity
100%
Altimeter
29.86" Hg
Pressure
1011.22 hPa
Previous

3 hours ago

KBLM 261156Z AUTO 23004KT 10SM CLR 01/01 A2985 RMK AO2 SLP111 70076 T00060006 10039 20006 53007 FZRANO
Observed
Jan-26 @ 11:56 UTC
Wind
  • 230° at 4 KTS
Visibility
10 SM
Flight Rules
VFR
Cloud Levels
  • Clear skies
Temperature
C / 34°F
Dewpoint
C / 34°F
Humidity
100%
Altimeter
29.85" Hg
Pressure
1010.82 hPa
24 Hour Rain
0.76"